KEUL

Caldwell Industrial Airport

Caldwell, Idaho, USA
METAR KEUL 140656Z AUTO 11008KT CLR M01/M05 A3034 RMK AO2 SLP295 T10111050 400501044 PWINO FZRANO RVRNO $
Observed Flight Rules
Dec-14 @ 06:56 UTC (46 minutes ago)
Wind Clouds
110° at 8 knots
  • Clear skies
Temperatures Readings
Current -1°C / 30°F
Dewpoint -5°C / 23°F
Humidity 75%
Altimeter 30.34" Hg
Pressure 1029.5 hPa
Elevation 740
METAR KEUL 140656Z AUTO 11008KT CLR M01/M05 A3034 RMK AO2 SLP295 T10111050 400501044 PWINO FZRANO RVRNO $
Observed Flight Rules
Dec-14 @ 06:56 UTC
(46 minutes ago)
Wind
110° at 8 knots
Clouds
  • Clear skies
Temperature Dewpoint
-1°C / 30°F -5°C / 23°F
Humidity Altimeter Pressure
75% 30.34" Hg 1029.5 hPa